Wahpeton, MN

8:39 AM CST on November 17, 2019 (GMT -0600)
Stern

Weather History for KBWP - October, 2019

Change the Weather History Date:

Monday, October 21, 2019

  Actual Average (WUND) Record (WUND)
Temperature  
Mean Temperature 44 °F -  
Max Temperature 50 °F - - (-1)
Min Temperature 39 °F - - (-1)
Degree Days  
Heating Degree Days 20    
Moisture  
Dew Point 40 °F    
Average Humidity 85    
Maximum Humidity 93    
Minimum Humidity 66    
Precipitation  
Precipitation 0.09 in - - ()
Sea Level Pressure  
Sea Level Pressure 29.54 in    
Wind  
Wind Speed 17 mph ()    
Max Wind Speed 37 mph    
Max Gust Speed 48 mph    
Visibility 9.2 miles    
Events      
Averages and records for this station are not official NWS values.
T = Trace of Precipitation, MM = Missing Value Source: Averaged Metar Reports

Daily Weather History Graph

Daily Weather History Graph

Search for Another Location

Airport or City:

Astronomy

Oct. 21, 2019 Rise Set
Actual Time 7:51 AM CDT 6:29 PM CDT
Civil Twilight 7:21 AM CDT 7:00 PM CDT
Nautical Twilight 6:46 AM CDT 7:35 PM CDT
Astronomical Twilight 6:11 AM CDT 8:09 PM CDT
Moon No Moon Rise 3:22 PM CDT (10/21)
Length of Visible Light 11h 39m
Length of Day
10h 38m
Waning Gibbous, 48% of the Moon is Illuminated
Oct 21
Waning Gibbous
Oct 27
New
Nov 4
First Quarter
Nov 12
Full
Nov 19
Last Quarter

Hourly Weather History & Observations

Time (CDT) Temp. Windchill Dew Point Humidity Pressure Visibility Wind Dir Wind Speed Gust Speed Precip Events Conditions
12:35 AM 50.0 °F - 39.2 °F 66% 29.71 in 10.0 mi ESE 16.1 mph 24.2 mph N/A   Unknown
12:55 AM 50.0 °F - 39.2 °F 66% 29.69 in 10.0 mi East 9.2 mph - N/A   Unknown
1:15 AM 48.2 °F - 41.0 °F 76% 29.69 in 10.0 mi ESE 12.7 mph 17.3 mph N/A   Unknown
1:35 AM 48.2 °F - 41.0 °F 76% 29.68 in 10.0 mi ESE 12.7 mph 20.7 mph N/A   Unknown
1:55 AM 46.4 °F 41.9 °F 41.0 °F 81% 29.64 in 10.0 mi NE 9.2 mph - N/A   Unknown
2:15 AM 46.4 °F 42.4 °F 41.0 °F 81% 29.63 in 10.0 mi NE 8.1 mph - N/A   Unknown
2:35 AM 46.4 °F 42.4 °F 41.0 °F 81% 29.62 in 10.0 mi NNE 8.1 mph - N/A   Unknown
2:55 AM 46.4 °F 41.9 °F 41.0 °F 81% 29.61 in 10.0 mi NNE 9.2 mph - N/A   Unknown
3:15 AM 46.4 °F 41.1 °F 42.8 °F 87% 29.62 in 10.0 mi NNE 11.5 mph - N/A   Unknown
3:35 AM 46.4 °F 41.1 °F 41.0 °F 81% 29.62 in 10.0 mi ENE 11.5 mph 17.3 mph N/A   Unknown
3:55 AM 46.4 °F 41.9 °F 41.0 °F 81% 29.62 in 10.0 mi ENE 9.2 mph - N/A   Unknown
4:15 AM 46.4 °F 41.9 °F 42.8 °F 87% 29.61 in 10.0 mi NE 9.2 mph - N/A   Unknown
4:35 AM 46.4 °F 40.7 °F 42.8 °F 87% 29.61 in 10.0 mi NE 12.7 mph - N/A   Unknown
4:55 AM 46.4 °F 39.0 °F 41.0 °F 81% 29.59 in 7.0 mi NNE 19.6 mph 25.3 mph N/A   Unknown
5:35 AM 44.6 °F 37.4 °F 42.8 °F 93% 29.59 in 10.0 mi NNE 16.1 mph 23.0 mph N/A   Unknown
5:55 AM 44.6 °F 36.9 °F 41.0 °F 87% 29.58 in 10.0 mi NNE 18.4 mph 23.0 mph N/A   Unknown
6:15 AM 44.6 °F 37.8 °F 41.0 °F 87% 29.59 in 10.0 mi NNE 15.0 mph 19.6 mph N/A   Unknown
6:35 AM 44.6 °F 37.8 °F 41.0 °F 87% 29.60 in 10.0 mi NNE 15.0 mph 19.6 mph N/A   Unknown
6:55 AM 44.6 °F 38.4 °F 41.0 °F 87% 29.59 in 7.0 mi NE 12.7 mph - N/A   Unknown
7:15 AM 46.4 °F 41.1 °F 41.0 °F 81% 29.59 in 10.0 mi NE 11.5 mph 18.4 mph N/A   Unknown
7:35 AM 44.6 °F 37.8 °F 41.0 °F 87% 29.58 in 10.0 mi NNE 15.0 mph - N/A   Unknown
7:55 AM 44.6 °F 37.8 °F 41.0 °F 87% 29.58 in 7.0 mi NNE 15.0 mph - N/A   Unknown
8:15 AM 44.6 °F 37.8 °F 41.0 °F 87% 29.58 in 7.0 mi NNE 15.0 mph - N/A   Unknown
8:35 AM 44.6 °F 37.4 °F 41.0 °F 87% 29.57 in 7.0 mi North 16.1 mph - N/A   Unknown
8:55 AM 44.6 °F 37.4 °F 41.0 °F 87% 29.56 in 10.0 mi North 16.1 mph 21.9 mph N/A   Unknown
9:15 AM 44.6 °F 37.8 °F 41.0 °F 87% 29.56 in 10.0 mi North 15.0 mph 20.7 mph N/A   Unknown
9:35 AM 44.6 °F 38.1 °F 41.0 °F 87% 29.55 in 10.0 mi North 13.8 mph 20.7 mph N/A   Unknown
9:55 AM 44.6 °F 37.8 °F 41.0 °F 87% 29.55 in 10.0 mi North 15.0 mph - N/A   Unknown
10:15 AM 44.6 °F 37.8 °F 41.0 °F 87% 29.55 in 10.0 mi North 15.0 mph 21.9 mph N/A   Unknown
10:35 AM 44.6 °F 38.1 °F 41.0 °F 87% 29.54 in 10.0 mi North 13.8 mph - N/A   Unknown
10:55 AM 44.6 °F 38.1 °F 41.0 °F 87% 29.53 in 10.0 mi North 13.8 mph - N/A   Unknown
11:35 AM 46.4 °F 39.2 °F 41.0 °F 81% 29.52 in 10.0 mi North 18.4 mph 24.2 mph N/A   Unknown
11:55 AM 46.4 °F 39.8 °F 41.0 °F 81% 29.51 in 10.0 mi North 16.1 mph 24.2 mph N/A   Unknown
12:15 PM 46.4 °F 39.0 °F 41.0 °F 81% 29.50 in 10.0 mi North 19.6 mph 29.9 mph N/A   Unknown
12:35 PM 46.4 °F 38.3 °F 41.0 °F 81% 29.49 in 10.0 mi North 23.0 mph 29.9 mph N/A   Unknown
12:55 PM 46.4 °F 39.0 °F 39.2 °F 76% 29.48 in 10.0 mi North 19.6 mph 28.8 mph N/A   Unknown
1:15 PM 46.4 °F 39.0 °F 39.2 °F 76% 29.47 in 10.0 mi North 19.6 mph 26.5 mph N/A   Unknown
1:35 PM 46.4 °F 39.0 °F 41.0 °F 81% 29.45 in 10.0 mi North 19.6 mph 28.8 mph N/A   Unknown
1:55 PM 46.4 °F 38.5 °F 41.0 °F 81% 29.44 in 10.0 mi North 21.9 mph 27.6 mph N/A   Unknown
2:15 PM 46.4 °F 39.2 °F 41.0 °F 81% 29.44 in 10.0 mi North 18.4 mph 28.8 mph N/A   Unknown
2:35 PM 46.4 °F 37.9 °F 39.2 °F 76% 29.44 in 10.0 mi North 25.3 mph 38.0 mph N/A   Unknown
2:55 PM 46.4 °F 38.3 °F 41.0 °F 81% 29.44 in 10.0 mi North 23.0 mph 33.4 mph 0.01 in   Unknown
3:15 PM 46.4 °F 38.5 °F 41.0 °F 81% 29.43 in 10.0 mi North 21.9 mph 32.2 mph N/A   Unknown
3:35 PM 46.4 °F 37.9 °F 41.0 °F 81% 29.43 in 10.0 mi North 25.3 mph 33.4 mph 0.01 in   Unknown
3:55 PM 46.4 °F 37.5 °F 41.0 °F 81% 29.43 in 10.0 mi North 27.6 mph 39.1 mph 0.01 in   Unknown
4:15 PM 44.6 °F 34.7 °F 41.0 °F 87% 29.43 in 10.0 mi NNW 29.9 mph 40.3 mph 0.01 in   Unknown
4:35 PM 44.6 °F 33.8 °F 41.0 °F 87% 29.44 in 5.0 mi NNW 36.8 mph 48.3 mph 0.02 in   Unknown
4:55 PM 44.6 °F 34.2 °F 41.0 °F 87% 29.44 in 7.0 mi NNW 33.4 mph 42.6 mph 0.03 in   Unknown
5:15 PM 44.6 °F 33.9 °F 41.0 °F 87% 29.45 in 5.0 mi NNW 35.7 mph 42.6 mph 0.01 in   Unknown
5:35 PM 42.8 °F 31.8 °F 41.0 °F 93% 29.45 in 5.0 mi NNW 33.4 mph 44.9 mph 0.02 in   Unknown
5:55 PM 42.8 °F 31.8 °F 41.0 °F 93% 29.45 in 5.0 mi NNW 33.4 mph 41.4 mph 0.03 in   Unknown
6:15 PM 42.8 °F 32.1 °F 41.0 °F 93% 29.46 in 10.0 mi NNW 31.1 mph 43.7 mph N/A   Unknown
6:35 PM 42.8 °F 32.1 °F 41.0 °F 93% 29.47 in 7.0 mi NNW 31.1 mph 43.7 mph N/A   Unknown
6:55 PM 42.8 °F 31.9 °F 41.0 °F 93% 29.48 in 7.0 mi NNW 32.2 mph 43.7 mph N/A   Unknown
7:15 PM 42.8 °F 32.1 °F 41.0 °F 93% 29.49 in 7.0 mi NNW 31.1 mph 41.4 mph 0.01 in   Unknown
7:35 PM 41.0 °F 29.8 °F 39.2 °F 93% 29.50 in 7.0 mi NNW 29.9 mph 42.6 mph 0.01 in   Unknown
7:55 PM 41.0 °F 29.8 °F 39.2 °F 93% 29.51 in 10.0 mi NNW 29.9 mph 43.7 mph 0.01 in   Unknown
8:15 PM 41.0 °F 29.3 °F 37.4 °F 87% 29.51 in 10.0 mi NNW 33.4 mph 42.6 mph N/A   Unknown
8:35 PM 41.0 °F 29.0 °F 37.4 °F 87% 29.51 in 10.0 mi NNW 35.7 mph 44.9 mph N/A   Unknown
8:55 PM 39.2 °F 26.6 °F 37.4 °F 93% 29.53 in 10.0 mi NNW 34.5 mph 46.0 mph N/A   Unknown
9:15 PM 39.2 °F 27.0 °F 37.4 °F 93% 29.52 in 10.0 mi NNW 32.2 mph 43.7 mph N/A   Unknown
9:35 PM 39.2 °F 27.8 °F 37.4 °F 93% 29.53 in 10.0 mi NNW 27.6 mph 41.4 mph N/A   Unknown
9:55 PM 39.2 °F 27.8 °F 37.4 °F 93% 29.54 in 10.0 mi NNW 27.6 mph 40.3 mph N/A   Unknown
10:15 PM 39.2 °F 27.4 °F 37.4 °F 93% 29.54 in 10.0 mi NNW 29.9 mph 40.3 mph N/A   Unknown
10:35 PM 39.2 °F 27.8 °F 37.4 °F 93% 29.54 in 7.0 mi NNW 27.6 mph 40.3 mph N/A   Unknown
10:55 PM 39.2 °F 28.3 °F 37.4 °F 93% 29.54 in 10.0 mi NNW 25.3 mph 38.0 mph N/A   Unknown
11:15 PM 39.2 °F 28.5 °F 35.6 °F 87% 29.55 in 10.0 mi NNW 24.2 mph 36.8 mph N/A   Unknown
11:35 PM 39.2 °F 27.6 °F 35.6 °F 87% 29.56 in 10.0 mi NNW 28.8 mph 40.3 mph N/A   Unknown
11:55 PM 39.2 °F 27.4 °F 35.6 °F 87% 29.56 in 10.0 mi NNW 29.9 mph 39.1 mph N/A   Unknown